Aviation Digital Data Service (ADDS)

Output produced by METARs form (0635 UTC 01 August 2021)
found at http://www.aviationweather.gov/metar/data/
 
METAR text: KGYI 010615Z AUTO 17008KT 10SM CLR 28/22 A3002 RMK AO2 T02800222
Conditions at: KGYI (SHERMAN/DENISON , TX, US) observed 0615 UTC 01 August 2021
Temperature: 28.0°C (82°F)
Dewpoint: 22.2°C (72°F) [RH = 71%]
Pressure (altimeter): 30.02 inches Hg (1016.7 mb)
Winds: from the S (170 degrees) at 9 MPH (8 knots; 4.1 m/s)
Visibility: 10 or more miles (16+ km)
Ceiling: at least 12,000 feet AGL
Clouds: sky clear below 12,000 feet AGL
Weather: automated observation with no human augmentation;
there may or may not be significant weather present at this time